createdAt,value
2019-04-10T00:07:15.587Z,13.2
2019-04-10T00:17:11.553Z,13.3
2019-04-10T00:27:10.843Z,13.3
2019-04-10T00:37:20.228Z,13.3
2019-04-10T00:47:09.434Z,13.3
2019-04-10T00:57:09.419Z,13.3
2019-04-10T01:07:08.605Z,13.2
2019-04-10T01:17:08.204Z,13.2
2019-04-10T01:27:06.358Z,13.2
2019-04-10T01:37:05.571Z,13.1
2019-04-10T01:47:04.781Z,13.1
2019-04-10T01:57:04.136Z,13.1
2019-04-10T02:07:03.209Z,13
2019-04-10T02:17:02.418Z,13
2019-04-10T02:27:02.373Z,12.9
2019-04-10T02:37:02.366Z,13
2019-04-10T02:47:00.053Z,12.9
2019-04-10T02:56:59.267Z,12.9
2019-04-10T03:06:59.891Z,12.9
2019-04-10T03:16:57.722Z,12.9
2019-04-10T03:26:56.903Z,12.9
2019-04-10T03:36:56.145Z,12.8
2019-04-10T03:46:55.368Z,12.8
2019-04-10T03:56:54.535Z,12.8
2019-04-10T04:06:53.754Z,11.9
2019-04-10T04:16:52.968Z,11.7
2019-04-10T04:26:53.024Z,11.6
2019-04-10T04:36:51.687Z,11.5
2019-04-10T04:46:50.691Z,11.5
2019-04-10T04:56:50.436Z,11.4
2019-04-10T05:06:49.768Z,11.5
2019-04-10T05:16:48.238Z,11.7
2019-04-10T05:26:47.458Z,11.7
2019-04-10T05:36:46.964Z,11.8
2019-04-10T05:46:46.483Z,11.9
2019-04-10T05:56:45.084Z,11.9
2019-04-10T06:06:44.368Z,11.9
2019-04-10T06:16:44.608Z,11.9
2019-04-10T06:26:43.672Z,12
2019-04-10T06:36:41.929Z,12
2019-04-10T06:46:41.785Z,12.1
2019-04-10T06:56:41.042Z,12.1
2019-04-10T07:06:52.598Z,12.2
2019-04-10T07:16:38.779Z,12.2
2019-04-10T07:26:41.918Z,12.3
2019-04-10T07:36:39.865Z,12.4
2019-04-10T07:46:36.409Z,12.5
2019-04-10T07:56:35.620Z,12.6
2019-04-10T08:06:35.271Z,12.7
2019-04-10T08:16:34.896Z,13.1
2019-04-10T08:26:33.253Z,13.8
2019-04-10T08:36:32.464Z,14.4
2019-04-10T08:46:31.680Z,15.1
2019-04-10T08:56:30.893Z,15.1
2019-04-10T09:06:30.103Z,15.3
2019-04-10T09:16:29.315Z,15.8
2019-04-10T09:26:28.639Z,16.4
2019-04-10T09:36:27.736Z,17.4
2019-04-10T09:46:26.954Z,18.5
2019-04-10T09:56:26.163Z,19.4
2019-04-10T10:06:30.631Z,21.1
2019-04-10T10:16:25.465Z,19.9
2019-04-10T10:26:23.999Z,19.5
2019-04-10T10:36:34.489Z,20.5
2019-04-10T10:46:23.067Z,20.4
2019-04-10T10:56:22.374Z,20.6
2019-04-10T11:06:20.655Z,20.1
2019-04-10T11:17:23.788Z,19.6
2019-04-10T11:27:23.033Z,18.8
2019-04-10T11:39:35.738Z,17.4
2019-04-10T11:49:33.891Z,16.8
2019-04-10T11:59:34.510Z,16.8
2019-04-10T12:10:44.018Z,16.3
2019-04-10T12:19:58.133Z,16.3
2019-04-10T12:29:57.348Z,16.8
2019-04-10T12:39:57.103Z,16.3
2019-04-10T12:49:56.756Z,15.5
2019-04-10T12:59:59.753Z,15.4
2019-04-10T13:22:49.331Z,15.3
2019-04-10T13:32:48.557Z,15.1
2019-04-10T13:42:47.743Z,15
2019-04-10T13:52:49.581Z,14.9
2019-04-10T14:02:46.161Z,14.6
2019-04-10T14:11:37.542Z,14.4
2019-04-10T14:21:37.356Z,14.3
2019-04-10T14:31:36.251Z,14.1
2019-04-10T14:41:35.987Z,14.1
2019-04-10T14:51:34.680Z,14.2
2019-04-10T15:01:33.659Z,14.3
2019-04-10T15:11:32.983Z,14.5
2019-04-10T15:21:32.156Z,14.8
2019-04-10T15:31:31.453Z,14.9
2019-04-10T15:41:30.814Z,14.6
2019-04-10T15:51:30.121Z,14.5
2019-04-10T16:01:29.332Z,14.4
2019-04-10T16:11:28.551Z,14.2
2019-04-10T16:21:27.761Z,14.3
2019-04-10T16:31:27.667Z,14.2
2019-04-10T16:41:27.831Z,14.1
2019-04-10T16:54:17.494Z,14.2
2019-04-10T17:04:14.683Z,14.4
2019-04-10T17:14:13.514Z,14.6
2019-04-10T17:24:13.356Z,14.7
2019-04-10T17:34:11.950Z,14.8
2019-04-10T17:44:11.686Z,14.9
2019-04-10T17:54:11.667Z,14.9
2019-04-10T18:04:09.750Z,14.9
2019-04-10T18:14:09.169Z,15.1
2019-04-10T18:24:08.355Z,15.1
2019-04-10T18:34:10.004Z,14.9
2019-04-10T18:44:06.949Z,14.8
2019-04-10T18:54:06.167Z,14.6
2019-04-10T19:04:05.912Z,14.4
2019-04-10T19:15:10.713Z,14.3
2019-04-10T19:25:10.386Z,14.1
2019-04-10T19:35:08.245Z,13.9
2019-04-10T19:45:07.832Z,13.9
2019-04-10T19:55:07.364Z,13.8
2019-04-10T20:05:05.886Z,13.7
2019-04-10T20:15:05.099Z,13.6
2019-04-10T20:25:04.311Z,13.4
2019-04-10T20:35:04.282Z,13.4
2019-04-10T20:45:02.740Z,13.4
2019-04-10T20:55:01.949Z,13.3
2019-04-10T21:05:06.181Z,13.2
2019-04-10T21:15:01.344Z,13.1
2019-04-10T21:25:00.582Z,12.9
2019-04-10T21:34:59.737Z,12.7
2019-04-10T21:44:58.007Z,12.6
2019-04-10T21:55:00.070Z,12.6
2019-04-10T22:04:57.416Z,12.6
2019-04-10T22:14:56.077Z,12.6
2019-04-10T22:24:54.855Z,12.7
2019-04-10T22:34:54.897Z,12.6
2019-04-10T22:44:53.871Z,12.6
2019-04-10T22:54:53.160Z,12.5
2019-04-10T23:04:51.698Z,12.4
2019-04-10T23:14:51.178Z,12.3
2019-04-10T23:24:50.129Z,12.3
2019-04-10T23:34:49.346Z,12.2
2019-04-10T23:44:49.127Z,12.1
2019-04-10T23:54:47.762Z,12.1
